Time;durP1;ratioP1;P1;durP2;ratioP2;P2;SDS_P1;SDS_P2;PMS_P1;PMS_P2;Temp;Humidity;BMP_temperature;BMP_pressure;BME280_temperature;BME280_humidity;BME280_pressure;Samples;Min_cycle;Max_cycle;Signal;HPM_P1;HPM_P2
2021/01/17 00:00:20;;;;;;;14.97;12.10;;;2.50;99.90;;;;;;5125430;27;20174;-85
2021/01/17 00:02:52;;;;;;;14.27;11.20;;;2.50;99.90;;;;;;5122660;27;20231;-82
2021/01/17 00:05:23;;;;;;;15.57;11.47;;;2.50;99.90;;;;;;5107138;27;20186;-83
2021/01/17 00:07:49;;;;;;;15.90;12.40;;;2.50;99.90;;;;;;5122945;27;20220;-87
2021/01/17 00:10:21;;;;;;;15.47;12.00;;;2.50;99.90;;;;;;5094760;28;20189;-84
2021/01/17 00:12:48;;;;;;;15.57;12.13;;;2.40;99.90;;;;;;5114346;28;20225;-87
2021/01/17 00:15:14;;;;;;;14.67;12.37;;;2.40;99.90;;;;;;5096338;28;20186;-85
2021/01/17 00:17:41;;;;;;;16.47;13.10;;;2.50;99.90;;;;;;5095956;28;20178;-83
2021/01/17 00:20:12;;;;;;;16.93;13.07;;;2.60;99.90;;;;;;5096135;28;20191;-87
2021/01/17 00:22:39;;;;;;;17.90;13.47;;;2.60;99.90;;;;;;5097743;28;20708;-89
2021/01/17 00:25:06;;;;;;;17.43;13.03;;;2.50;99.90;;;;;;5116515;28;20179;-82
2021/01/17 00:27:32;;;;;;;15.20;12.20;;;2.40;99.90;;;;;;5115544;28;20217;-83
2021/01/17 00:29:57;;;;;;;15.77;12.50;;;2.50;99.90;;;;;;5099641;28;20195;-86
2021/01/17 00:32:23;;;;;;;16.60;13.10;;;2.50;99.90;;;;;;5075545;28;20187;-87
2021/01/17 00:34:49;;;;;;;16.37;13.40;;;2.50;99.90;;;;;;5093988;28;20643;-86
2021/01/17 00:37:15;;;;;;;18.97;13.83;;;2.60;99.90;;;;;;5108776;28;20662;-85
2021/01/17 00:39:41;;;;;;;16.80;13.93;;;2.60;99.90;;;;;;5113011;28;20278;-87
2021/01/17 00:42:14;;;;;;;18.53;14.33;;;2.60;99.90;;;;;;5116944;28;20590;-85
2021/01/17 00:44:41;;;;;;;19.40;14.43;;;2.70;99.90;;;;;;5113064;28;20185;-87
2021/01/17 00:47:07;;;;;;;18.53;13.97;;;2.60;99.90;;;;;;5111825;28;20210;-86
2021/01/17 00:49:32;;;;;;;19.83;14.97;;;2.60;99.90;;;;;;5112631;28;20187;-82
2021/01/17 00:51:58;;;;;;;18.83;13.60;;;2.60;99.90;;;;;;5113292;28;20232;-86
2021/01/17 00:54:24;;;;;;;17.97;14.33;;;2.60;99.90;;;;;;5096169;28;20537;-86
2021/01/17 00:56:50;;;;;;;22.07;15.50;;;2.70;99.90;;;;;;5113572;28;20210;-82
2021/01/17 00:59:15;;;;;;;18.97;14.37;;;2.60;99.90;;;;;;5113793;28;20218;-87
2021/01/17 01:01:43;;;;;;;21.07;15.57;;;2.60;99.90;;;;;;5095466;28;20186;-87
2021/01/17 01:04:09;;;;;;;22.23;15.20;;;2.70;99.90;;;;;;5113871;28;20179;-85
2021/01/17 01:06:36;;;;;;;19.40;14.73;;;2.70;99.90;;;;;;5095330;28;20207;-85
2021/01/17 01:09:13;;;;;;;18.47;14.63;;;2.70;99.90;;;;;;5113826;28;20273;-84
2021/01/17 01:11:40;;;;;;;19.07;14.63;;;2.60;99.90;;;;;;5095413;28;20607;-83
2021/01/17 01:14:06;;;;;;;23.47;16.37;;;2.70;99.90;;;;;;5113717;28;20214;-87
2021/01/17 01:16:32;;;;;;;19.50;14.53;;;2.70;99.90;;;;;;5095651;28;20189;-85
2021/01/17 01:18:59;;;;;;;21.20;15.77;;;2.80;99.90;;;;;;5095522;28;20183;-84
2021/01/17 01:21:29;;;;;;;21.53;15.53;;;2.90;99.90;;;;;;5112599;28;20198;-85
2021/01/17 01:23:55;;;;;;;20.60;15.97;;;2.90;99.90;;;;;;5095780;28;20194;-86
2021/01/17 01:26:21;;;;;;;21.97;15.30;;;2.90;99.90;;;;;;5113510;28;20274;-87
2021/01/17 01:28:53;;;;;;;21.67;15.57;;;2.90;99.90;;;;;;5095696;28;20191;-83
2021/01/17 01:31:20;;;;;;;22.80;15.03;;;2.90;99.90;;;;;;5099296;28;20190;-87
2021/01/17 01:33:47;;;;;;;21.93;16.43;;;2.90;99.90;;;;;;5117911;28;20214;-87
2021/01/17 01:36:20;;;;;;;20.07;14.60;;;2.80;99.90;;;;;;5089245;28;20585;-83
2021/01/17 01:38:47;;;;;;;21.10;15.20;;;2.90;99.90;;;;;;5097098;28;20172;-86
2021/01/17 01:41:13;;;;;;;21.97;16.40;;;2.80;99.90;;;;;;5078855;28;20188;-86
2021/01/17 01:43:40;;;;;;;20.57;15.90;;;3.00;99.90;;;;;;5078948;28;20716;-87
2021/01/17 01:46:07;;;;;;;22.97;16.53;;;3.00;99.90;;;;;;5112921;28;20180;-86
2021/01/17 01:48:34;;;;;;;21.70;16.40;;;3.00;99.90;;;;;;5078793;28;20214;-85
2021/01/17 01:51:02;;;;;;;24.17;16.03;;;3.00;99.90;;;;;;5078808;28;20187;-87
2021/01/17 01:53:29;;;;;;;21.27;15.47;;;3.10;99.90;;;;;;5093427;28;20190;-88
2021/01/17 01:55:56;;;;;;;22.70;15.80;;;3.00;99.90;;;;;;5098943;28;20190;-86
2021/01/17 01:58:23;;;;;;;24.30;16.27;;;3.10;99.90;;;;;;5098858;28;20275;-84
2021/01/17 02:00:49;;;;;;;23.50;16.23;;;3.20;99.90;;;;;;5117067;28;20182;-86
2021/01/17 02:03:15;;;;;;;22.73;16.57;;;3.10;99.90;;;;;;5085100;28;20221;-83
2021/01/17 02:05:41;;;;;;;23.90;17.47;;;3.20;99.90;;;;;;5095395;28;20183;-83
2021/01/17 02:08:16;;;;;;;21.83;16.37;;;3.10;99.90;;;;;;5094629;28;20208;-85
2021/01/17 02:10:43;;;;;;;22.07;15.83;;;3.00;99.90;;;;;;5078738;28;20325;-83
2021/01/17 02:13:30;;;;;;;21.20;15.07;;;3.00;99.90;;;;;;5096484;28;20187;-86
2021/01/17 02:15:58;;;;;;;22.07;15.80;;;3.00;99.90;;;;;;5078274;28;20188;-87
2021/01/17 02:18:25;;;;;;;19.73;14.60;;;3.00;99.90;;;;;;5096266;28;20179;-81
2021/01/17 02:20:53;;;;;;;25.10;16.20;;;3.10;99.90;;;;;;5080281;28;20215;-84
2021/01/17 02:23:25;;;;;;;23.07;16.70;;;3.10;99.90;;;;;;5115467;28;20186;-85
2021/01/17 02:25:50;;;;;;;21.90;15.83;;;3.20;99.90;;;;;;5116416;28;20214;-86
2021/01/17 02:28:18;;;;;;;23.27;16.83;;;3.10;99.90;;;;;;5116533;28;20678;-84
2021/01/17 02:30:49;;;;;;;21.40;15.03;;;3.00;99.90;;;;;;5116519;27;20261;-86
2021/01/17 02:33:21;;;;;;;23.93;16.80;;;3.00;99.90;;;;;;5116378;28;20209;-83
2021/01/17 02:35:48;;;;;;;25.53;17.40;;;3.00;99.90;;;;;;5116464;28;20260;-86
2021/01/17 02:38:19;;;;;;;21.80;16.40;;;3.00;99.90;;;;;;5116309;28;20187;-86
2021/01/17 02:41:00;;;;;;;28.83;18.17;;;3.00;99.90;;;;;;5115920;28;20183;-82
2021/01/17 02:43:27;;;;;;;25.50;16.90;;;3.00;99.90;;;;;;5098089;28;20236;-82
2021/01/17 02:45:52;;;;;;;24.43;17.63;;;3.00;99.90;;;;;;5115729;28;20178;-86
2021/01/17 02:48:18;;;;;;;25.73;18.03;;;3.10;99.90;;;;;;5097410;28;20260;-86
2021/01/17 02:50:44;;;;;;;24.70;17.97;;;3.10;99.90;;;;;;5097755;28;20174;-84
2021/01/17 02:53:15;;;;;;;24.80;17.30;;;3.10;99.90;;;;;;5116005;28;20182;-83
2021/01/17 02:55:41;;;;;;;25.80;18.30;;;3.10;99.90;;;;;;5097784;28;20190;-86
2021/01/17 02:58:08;;;;;;;28.17;18.57;;;3.20;99.90;;;;;;5115096;28;20190;-84
2021/01/17 03:00:35;;;;;;;25.57;18.80;;;3.10;99.90;;;;;;5097769;28;20220;-87
2021/01/17 03:03:03;;;;;;;29.90;18.53;;;3.20;99.90;;;;;;5115439;28;20234;-83
2021/01/17 03:05:29;;;;;;;30.07;19.53;;;3.40;99.90;;;;;;5097903;28;20190;-83
2021/01/17 03:07:57;;;;;;;30.07;19.80;;;3.30;99.90;;;;;;5115581;28;20207;-87
2021/01/17 03:10:24;;;;;;;26.97;19.97;;;3.20;99.90;;;;;;5097049;28;20189;-83
2021/01/17 03:12:50;;;;;;;29.53;19.50;;;3.20;99.90;;;;;;5115963;28;20612;-86
2021/01/17 03:15:17;;;;;;;33.00;21.33;;;3.30;99.90;;;;;;5096924;28;20232;-86
2021/01/17 03:17:43;;;;;;;31.90;20.83;;;3.60;99.90;;;;;;5115240;28;20203;-84
2021/01/17 03:20:09;;;;;;;32.50;21.20;;;3.60;99.90;;;;;;5096776;28;20185;-86
2021/01/17 03:22:35;;;;;;;34.47;21.00;;;3.50;99.90;;;;;;5096959;28;20215;-87
2021/01/17 03:25:02;;;;;;;34.33;21.13;;;3.60;99.90;;;;;;5115675;28;20186;-83
2021/01/17 03:27:27;;;;;;;34.43;22.03;;;3.50;99.90;;;;;;5098423;28;20206;-85
2021/01/17 03:29:53;;;;;;;32.07;20.53;;;3.60;99.90;;;;;;5103438;28;20187;-85
2021/01/17 03:32:18;;;;;;;35.77;22.03;;;3.50;99.90;;;;;;5109622;28;20202;-85
2021/01/17 03:34:48;;;;;;;34.50;22.37;;;3.40;99.90;;;;;;5105813;28;20185;-86
2021/01/17 03:37:17;;;;;;;39.23;21.97;;;3.50;99.90;;;;;;5080728;28;20675;-88
2021/01/17 03:39:43;;;;;;;40.23;22.57;;;3.60;99.90;;;;;;5077701;28;20579;-86
2021/01/17 03:42:11;;;;;;;39.33;23.80;;;3.50;99.90;;;;;;5093407;28;20236;-87
2021/01/17 03:44:37;;;;;;;42.37;21.83;;;3.50;99.90;;;;;;5094556;28;20172;-84
2021/01/17 03:47:04;;;;;;;39.23;23.47;;;3.50;99.90;;;;;;5076300;28;20207;-87
2021/01/17 03:49:30;;;;;;;39.57;22.47;;;3.40;99.90;;;;;;5076277;28;20187;-86
2021/01/17 03:51:56;;;;;;;40.40;23.40;;;3.50;99.90;;;;;;5109331;27;20236;-85
2021/01/17 03:54:21;;;;;;;44.07;23.70;;;3.40;99.90;;;;;;5076650;28;20223;-82
2021/01/17 03:56:47;;;;;;;39.80;22.93;;;3.60;99.90;;;;;;5076618;28;20198;-82
2021/01/17 03:59:16;;;;;;;43.97;24.03;;;3.50;99.90;;;;;;5076161;28;20546;-86
2021/01/17 04:01:43;;;;;;;41.80;23.40;;;3.70;99.90;;;;;;5076827;28;20191;-83
2021/01/17 04:04:08;;;;;;;39.27;23.67;;;3.70;99.90;;;;;;5096697;28;20209;-85
2021/01/17 04:06:36;;;;;;;42.33;22.60;;;3.60;99.90;;;;;;5096504;28;20646;-85
2021/01/17 04:09:05;;;;;;;41.73;23.73;;;3.60;99.90;;;;;;5096738;28;20279;-86
2021/01/17 04:11:31;;;;;;;42.67;24.73;;;3.60;99.90;;;;;;5114368;28;20186;-86
2021/01/17 04:13:57;;;;;;;38.83;23.53;;;3.70;99.90;;;;;;5096996;28;20189;-84
2021/01/17 04:16:23;;;;;;;42.10;25.07;;;3.90;99.90;;;;;;5096105;28;20281;-86
2021/01/17 04:18:49;;;;;;;45.33;24.67;;;4.00;99.90;;;;;;5096405;28;20186;-88
2021/01/17 04:21:15;;;;;;;46.00;24.73;;;4.00;99.90;;;;;;5113973;28;20272;-86
2021/01/17 04:23:41;;;;;;;46.33;24.07;;;4.10;99.90;;;;;;5114977;28;20236;-86
2021/01/17 04:26:07;;;;;;;45.87;24.87;;;4.30;99.90;;;;;;5095994;28;20195;-86
2021/01/17 04:28:33;;;;;;;43.13;25.03;;;4.50;99.90;;;;;;5114611;28;20730;-86
2021/01/17 04:30:59;;;;;;;41.20;23.67;;;4.40;99.90;;;;;;5096611;28;20212;-88
2021/01/17 04:33:24;;;;;;;39.60;22.00;;;4.70;99.90;;;;;;5096506;28;20205;-85
2021/01/17 04:35:50;;;;;;;41.73;24.50;;;4.90;99.90;;;;;;5114160;28;20179;-86
2021/01/17 04:38:16;;;;;;;38.60;20.80;;;4.90;99.90;;;;;;5113969;28;20187;-87
2021/01/17 04:40:42;;;;;;;30.17;17.07;;;5.00;99.90;;;;;;5112619;28;20194;-85
2021/01/17 04:43:10;;;;;;;27.00;16.47;;;5.20;99.90;;;;;;5113384;28;20181;-86
2021/01/17 04:45:36;;;;;;;26.97;15.33;;;5.30;99.90;;;;;;5113513;28;20182;-87
2021/01/17 04:48:07;;;;;;;27.67;14.90;;;5.40;99.90;;;;;;5113764;28;20305;-85
2021/01/17 04:50:34;;;;;;;24.60;13.53;;;5.50;99.90;;;;;;5112415;28;20232;-82
2021/01/17 04:53:03;;;;;;;28.00;14.00;;;5.60;99.90;;;;;;5113526;28;20265;-85
2021/01/17 04:55:28;;;;;;;24.90;13.90;;;5.60;99.90;;;;;;5095510;28;20650;-86
2021/01/17 04:58:13;;;;;;;22.07;12.27;;;5.70;99.90;;;;;;5095919;28;20222;-86
2021/01/17 05:00:44;;;;;;;25.83;12.27;;;5.70;99.90;;;;;;5095747;28;20221;-86
2021/01/17 05:03:16;;;;;;;25.17;11.90;;;5.70;99.90;;;;;;5096730;28;20183;-87
2021/01/17 05:06:09;;;;;;;21.67;10.97;;;5.80;99.90;;;;;;5099620;28;20174;-84
2021/01/17 05:08:35;;;;;;;20.13;10.03;;;5.90;99.90;;;;;;5098133;28;20206;-86
2021/01/17 05:11:06;;;;;;;27.73;11.07;;;5.90;99.90;;;;;;5116496;28;20243;-88
2021/01/17 05:13:47;;;;;;;25.13;10.50;;;6.00;99.90;;;;;;5098130;28;20226;-85
2021/01/17 05:16:14;;;;;;;24.87;12.63;;;6.00;99.90;;;;;;5097839;28;20178;-86
2021/01/17 05:18:47;;;;;;;23.27;12.93;;;6.10;99.90;;;;;;5104239;28;20162;-85
2021/01/17 05:21:19;;;;;;;25.43;14.23;;;6.10;99.90;;;;;;5130125;28;20207;-83
2021/01/17 05:23:47;;;;;;;28.63;14.00;;;6.10;99.90;;;;;;5085579;28;20179;-86
2021/01/17 05:26:13;;;;;;;23.43;14.30;;;6.00;99.90;;;;;;5098534;28;20198;-85
2021/01/17 05:28:41;;;;;;;31.10;14.93;;;6.00;99.90;;;;;;5096293;28;20235;-87
2021/01/17 05:31:06;;;;;;;32.13;14.63;;;6.00;99.90;;;;;;5113527;28;20278;-86
2021/01/17 05:33:32;;;;;;;27.70;13.63;;;5.90;99.90;;;;;;5113502;28;20234;-82
2021/01/17 05:35:59;;;;;;;29.33;13.23;;;6.00;99.90;;;;;;5125424;27;20187;-87
2021/01/17 05:38:26;;;;;;;30.37;13.90;;;6.00;99.90;;;;;;5116710;28;20202;-88
2021/01/17 05:40:52;;;;;;;24.40;11.77;;;6.00;99.90;;;;;;5117827;27;20269;-84
2021/01/17 05:43:18;;;;;;;28.63;12.00;;;5.90;99.90;;;;;;5116461;28;20202;-87
2021/01/17 05:45:44;;;;;;;28.10;11.40;;;5.90;99.90;;;;;;5117887;28;20269;-88
2021/01/17 05:48:10;;;;;;;25.10;12.30;;;5.90;99.90;;;;;;5116095;28;20301;-88
2021/01/17 05:50:41;;;;;;;28.37;12.53;;;5.80;99.90;;;;;;5117664;28;20208;-87
2021/01/17 05:53:06;;;;;;;22.77;11.23;;;5.80;99.90;;;;;;5116821;28;20286;-88
2021/01/17 05:55:34;;;;;;;27.13;10.70;;;5.70;99.90;;;;;;5117480;28;20611;-85
2021/01/17 05:58:22;;;;;;;20.57;10.73;;;5.70;99.90;;;;;;5099300;28;20198;-88
2021/01/17 06:00:49;;;;;;;23.03;10.50;;;5.70;99.90;;;;;;5117329;28;20179;-87
2021/01/17 06:03:36;;;;;;;21.97;7.17;;;5.90;99.90;;;;;;5103301;28;20193;-84
2021/01/17 06:06:05;;;;;;;21.47;7.93;;;5.80;99.90;;;;;;5078847;28;20282;-85
2021/01/17 06:08:32;;;;;;;16.97;8.90;;;5.80;99.90;;;;;;5096740;28;20204;-83
2021/01/17 06:11:12;;;;;;;22.80;10.37;;;5.80;99.90;;;;;;5078527;28;20179;-87
2021/01/17 06:13:40;;;;;;;20.77;10.07;;;5.90;99.90;;;;;;5078688;28;20183;-87
2021/01/17 06:16:24;;;;;;;28.63;10.83;;;5.90;99.90;;;;;;5077789;28;20180;-86
2021/01/17 06:18:55;;;;;;;26.97;11.23;;;5.80;99.90;;;;;;5078487;28;20191;-87
2021/01/17 06:21:23;;;;;;;20.90;11.60;;;5.80;99.90;;;;;;5079788;28;20211;-83
2021/01/17 06:23:54;;;;;;;24.93;12.37;;;5.80;99.90;;;;;;5098884;28;20639;-86
2021/01/17 06:26:24;;;;;;;29.07;11.13;;;5.80;99.90;;;;;;5102656;28;20190;-88
2021/01/17 06:28:50;;;;;;;32.30;12.20;;;5.80;99.90;;;;;;5102480;28;20247;-88
2021/01/17 06:31:21;;;;;;;26.97;12.60;;;5.80;99.90;;;;;;5101228;28;20179;-88
2021/01/17 06:33:49;;;;;;;27.57;12.73;;;5.80;99.90;;;;;;5098332;28;20190;-88
2021/01/17 06:36:16;;;;;;;29.63;12.27;;;5.80;99.90;;;;;;5098553;28;20183;-88
2021/01/17 06:38:45;;;;;;;27.27;12.03;;;5.80;99.90;;;;;;5098455;28;20179;-82
2021/01/17 06:41:12;;;;;;;22.30;12.50;;;5.70;99.90;;;;;;5116276;28;20207;-87
2021/01/17 06:43:42;;;;;;;27.33;12.30;;;5.80;99.90;;;;;;5116317;28;20185;-88
2021/01/17 06:46:08;;;;;;;25.67;12.83;;;5.80;99.90;;;;;;5098368;28;20187;-86
2021/01/17 06:48:34;;;;;;;29.13;12.30;;;5.80;99.90;;;;;;5097982;28;20211;-88
2021/01/17 06:51:20;;;;;;;26.57;12.63;;;5.90;99.90;;;;;;5098306;28;20175;-88
2021/01/17 06:53:55;;;;;;;37.00;12.80;;;5.90;99.90;;;;;;5116029;28;20226;-85
2021/01/17 06:56:21;;;;;;;31.70;12.17;;;5.90;99.90;;;;;;5097788;28;20281;-84
2021/01/17 06:58:50;;;;;;;31.77;11.60;;;5.90;99.90;;;;;;5098031;28;20186;-86
2021/01/17 07:01:16;;;;;;;24.07;10.63;;;5.90;99.90;;;;;;5116111;28;20187;-87
2021/01/17 07:04:11;;;;;;;23.03;11.87;;;5.90;99.90;;;;;;5080422;28;20190;-85
2021/01/17 07:06:58;;;;;;;24.73;9.87;;;5.90;99.90;;;;;;5077683;28;20187;-88
2021/01/17 07:09:49;;;;;;;26.60;11.47;;;6.00;99.90;;;;;;5095180;28;20175;-87
2021/01/17 07:12:52;;;;;;;26.13;10.60;;;6.00;99.90;;;;;;5077811;28;20189;-88
2021/01/17 07:15:28;;;;;;;23.63;9.33;;;6.00;99.90;;;;;;5077758;28;20231;-88
2021/01/17 07:18:08;;;;;;;25.97;9.30;;;6.00;99.90;;;;;;5095285;28;20186;-87
2021/01/17 07:20:36;;;;;;;21.60;9.90;;;6.00;99.90;;;;;;5078678;28;20202;-87
2021/01/17 07:23:04;;;;;;;27.53;8.77;;;5.90;99.90;;;;;;5097551;28;20187;-83
2021/01/17 07:25:31;;;;;;;24.33;9.63;;;5.80;99.90;;;;;;5115822;28;20177;-89
2021/01/17 07:28:13;;;;;;;23.43;10.07;;;5.80;99.90;;;;;;5096757;28;20719;-86
2021/01/17 07:30:59;;;;;;;29.80;9.73;;;5.90;99.90;;;;;;5097337;28;20191;-82
2021/01/17 07:33:30;;;;;;;27.67;9.67;;;5.90;99.90;;;;;;5132146;27;20214;-88
2021/01/17 07:36:00;;;;;;;25.70;9.93;;;6.00;99.90;;;;;;5089924;28;20198;-87
2021/01/17 07:38:34;;;;;;;27.80;9.63;;;6.00;99.90;;;;;;5077065;28;20191;-90
2021/01/17 07:41:09;;;;;;;26.03;9.50;;;6.00;99.90;;;;;;5085196;28;20183;-88
2021/01/17 07:43:38;;;;;;;26.33;8.63;;;6.00;99.90;;;;;;5094676;28;20200;-87
2021/01/17 07:46:22;;;;;;;21.87;8.33;;;6.00;99.90;;;;;;5076673;28;20187;-86
2021/01/17 07:48:49;;;;;;;18.93;8.63;;;6.00;99.90;;;;;;5076446;28;20260;-88
2021/01/17 07:51:15;;;;;;;32.17;9.83;;;5.90;99.90;;;;;;5097998;28;20183;-83
2021/01/17 07:54:04;;;;;;;25.77;9.43;;;5.90;99.90;;;;;;5096373;28;20194;-88
2021/01/17 07:56:34;;;;;;;26.20;9.40;;;5.90;99.90;;;;;;5096366;28;20194;-86
2021/01/17 07:59:02;;;;;;;26.80;9.37;;;6.00;99.90;;;;;;5114808;28;20257;-87
2021/01/17 08:01:31;;;;;;;28.10;10.33;;;5.90;99.90;;;;;;5096585;28;20186;-87
2021/01/17 08:04:17;;;;;;;27.37;8.33;;;5.90;99.90;;;;;;5096857;28;20261;-88
2021/01/17 08:06:45;;;;;;;27.70;9.23;;;6.00;99.90;;;;;;5085845;28;20191;-85
2021/01/17 08:09:13;;;;;;;28.43;9.60;;;5.90;99.90;;;;;;5096689;28;20303;-82
2021/01/17 08:11:47;;;;;;;26.63;8.63;;;5.90;99.90;;;;;;5096446;28;20183;-85
2021/01/17 08:14:27;;;;;;;25.17;9.43;;;5.90;99.90;;;;;;5116737;28;20181;-84
2021/01/17 08:17:13;;;;;;;25.60;8.70;;;5.90;99.90;;;;;;5120444;28;20174;-87
2021/01/17 08:19:54;;;;;;;25.73;8.00;;;6.00;99.90;;;;;;5095915;28;20692;-88
2021/01/17 08:22:23;;;;;;;28.10;8.13;;;6.10;99.90;;;;;;5094531;28;20214;-89
2021/01/17 08:24:55;;;;;;;22.93;7.27;;;6.10;99.90;;;;;;5128333;27;20189;-87
2021/01/17 08:27:27;;;;;;;28.43;8.00;;;6.10;99.90;;;;;;5093881;28;20253;-88
2021/01/17 08:30:08;;;;;;;20.90;7.43;;;6.20;99.90;;;;;;5129721;27;20220;-86
2021/01/17 08:32:44;;;;;;;22.73;7.57;;;6.30;99.90;;;;;;5130444;27;20178;-85
2021/01/17 08:35:19;;;;;;;23.70;8.23;;;6.40;99.90;;;;;;5114450;28;20635;-86
2021/01/17 08:37:44;;;;;;;25.13;8.60;;;6.30;99.90;;;;;;5074632;28;20880;-85
2021/01/17 08:40:14;;;;;;;21.40;7.97;;;6.20;99.90;;;;;;5075465;28;20631;-84
2021/01/17 08:42:52;;;;;;;20.90;7.40;;;6.20;99.90;;;;;;5075666;28;20214;-85
2021/01/17 08:45:20;;;;;;;29.90;8.30;;;6.20;99.90;;;;;;5075084;28;20550;-84
2021/01/17 08:48:03;;;;;;;28.27;7.70;;;6.20;99.90;;;;;;5074954;28;20215;-84
2021/01/17 08:50:38;;;;;;;29.27;7.70;;;6.20;99.90;;;;;;5074689;28;20194;-83
2021/01/17 08:53:07;;;;;;;33.80;8.20;;;6.20;99.90;;;;;;5095397;28;20202;-86
2021/01/17 08:55:40;;;;;;;28.03;7.90;;;6.20;99.90;;;;;;5129733;28;20282;-82
2021/01/17 08:58:08;;;;;;;30.63;8.50;;;6.30;99.90;;;;;;5095746;28;20281;-86
2021/01/17 09:00:58;;;;;;;22.40;7.43;;;6.30;99.90;;;;;;5116395;28;20202;-85
2021/01/17 09:03:29;;;;;;;24.13;7.70;;;6.40;99.90;;;;;;5113665;28;20563;-84
2021/01/17 09:06:00;;;;;;;22.40;8.00;;;6.30;99.90;;;;;;5095206;28;20186;-83
2021/01/17 09:08:30;;;;;;;28.80;8.13;;;6.30;99.90;;;;;;5095614;28;20213;-89
2021/01/17 09:10:56;;;;;;;28.23;8.23;;;6.40;99.90;;;;;;5118514;28;20187;-86
2021/01/17 09:13:25;;;;;;;26.73;8.47;;;6.40;99.90;;;;;;5096213;28;20526;-84
2021/01/17 09:16:08;;;;;;;19.43;7.23;;;6.40;99.90;;;;;;5095397;28;20186;-87
2021/01/17 09:18:38;;;;;;;27.47;8.17;;;6.30;99.90;;;;;;5113686;28;20657;-81
2021/01/17 09:21:07;;;;;;;27.80;8.80;;;6.30;99.90;;;;;;5091468;28;20237;-86
2021/01/17 09:23:37;;;;;;;27.90;7.83;;;6.40;99.90;;;;;;5113839;28;20194;-85
2021/01/17 09:26:04;;;;;;;28.00;8.63;;;6.40;99.90;;;;;;5113573;28;20191;-87
2021/01/17 09:28:30;;;;;;;29.23;8.47;;;6.30;99.90;;;;;;5096560;28;20207;-88
2021/01/17 09:30:59;;;;;;;25.43;8.30;;;6.30;99.90;;;;;;5080609;28;20201;-89
2021/01/17 09:33:25;;;;;;;22.10;8.40;;;6.20;99.90;;;;;;5113302;28;20179;-85
2021/01/17 09:35:51;;;;;;;29.07;8.43;;;6.30;99.90;;;;;;5094404;28;20375;-79
2021/01/17 09:38:22;;;;;;;24.97;8.77;;;6.40;99.90;;;;;;5113175;28;20270;-87
2021/01/17 09:40:54;;;;;;;28.83;10.03;;;6.50;99.90;;;;;;5095739;28;20190;-88
2021/01/17 09:43:20;;;;;;;28.03;9.67;;;6.50;99.90;;;;;;5113517;28;20187;-84
2021/01/17 09:45:50;;;;;;;22.87;9.37;;;6.50;99.90;;;;;;5096732;28;20202;-93
2021/01/17 09:48:20;;;;;;;26.17;8.30;;;6.50;99.90;;;;;;5094881;28;20543;-88
2021/01/17 09:50:46;;;;;;;28.17;7.73;;;6.50;99.90;;;;;;5114711;28;20217;-87
2021/01/17 09:53:13;;;;;;;25.27;7.20;;;6.50;99.90;;;;;;5115277;28;20274;-84
2021/01/17 09:55:43;;;;;;;21.90;7.37;;;6.50;99.90;;;;;;5116921;28;20187;-84
2021/01/17 09:58:11;;;;;;;25.40;7.63;;;6.50;99.90;;;;;;5117367;28;20191;-90
2021/01/17 10:00:40;;;;;;;21.27;7.87;;;6.50;99.90;;;;;;5116357;28;20220;-90
2021/01/17 10:03:11;;;;;;;24.70;7.63;;;6.60;99.90;;;;;;5116945;28;20191;-86
2021/01/17 10:05:38;;;;;;;26.17;8.10;;;6.60;99.90;;;;;;5116995;28;20191;-90
2021/01/17 10:08:13;;;;;;;21.03;7.90;;;6.70;99.90;;;;;;5123559;28;20221;-89
2021/01/17 10:10:46;;;;;;;22.33;7.33;;;6.80;99.90;;;;;;5114977;28;20194;-92
2021/01/17 10:13:12;;;;;;;24.83;8.07;;;6.70;99.90;;;;;;5118352;28;20222;-88
2021/01/17 10:15:41;;;;;;;20.10;7.27;;;6.80;99.90;;;;;;5102395;28;20710;-85
2021/01/17 10:18:08;;;;;;;24.60;8.43;;;6.80;99.90;;;;;;5119034;28;20189;-87
2021/01/17 10:20:38;;;;;;;20.33;7.13;;;6.90;99.90;;;;;;5118565;28;20206;-83
2021/01/17 10:23:10;;;;;;;17.83;8.00;;;7.10;99.90;;;;;;5120090;28;20171;-88
2021/01/17 10:25:37;;;;;;;28.93;8.23;;;7.00;99.90;;;;;;5117913;28;20190;-91
2021/01/17 10:28:07;;;;;;;22.20;7.40;;;7.00;99.90;;;;;;5119445;28;20272;-85
2021/01/17 10:30:37;;;;;;;26.53;7.80;;;6.90;99.90;;;;;;5120433;28;20189;-94
2021/01/17 10:33:15;;;;;;;20.37;7.07;;;6.80;99.90;;;;;;5118295;28;20232;-91
2021/01/17 10:35:49;;;;;;;22.60;7.87;;;6.90;99.90;;;;;;5116258;28;20206;-94
2021/01/17 10:38:18;;;;;;;21.33;8.33;;;6.90;99.90;;;;;;5118416;28;20213;-90
2021/01/17 10:40:45;;;;;;;21.93;7.77;;;7.00;99.90;;;;;;5116098;28;20197;-91
2021/01/17 10:43:23;;;;;;;28.43;9.17;;;7.10;99.90;;;;;;5116411;27;20270;-92
2021/01/17 10:46:00;;;;;;;23.10;7.57;;;7.10;99.90;;;;;;5116624;28;20183;-91
2021/01/17 10:48:26;;;;;;;29.80;9.47;;;7.10;99.90;;;;;;5117075;28;20202;-93
2021/01/17 10:50:56;;;;;;;23.43;8.43;;;7.20;99.90;;;;;;5115442;28;20316;-88
2021/01/17 10:53:46;;;;;;;24.30;8.10;;;7.30;99.90;;;;;;5098664;28;20178;-85
2021/01/17 10:56:16;;;;;;;24.67;8.27;;;7.20;99.90;;;;;;5097995;28;20190;-85
2021/01/17 10:58:43;;;;;;;28.13;8.40;;;7.30;99.90;;;;;;5099940;28;20198;-90
2021/01/17 11:01:09;;;;;;;22.83;7.83;;;7.50;99.90;;;;;;5117891;28;20189;-92
2021/01/17 11:03:45;;;;;;;24.93;8.43;;;7.30;99.90;;;;;;5117864;28;20521;-87
2021/01/17 11:06:15;;;;;;;25.97;7.93;;;7.30;99.90;;;;;;5103884;28;20186;-90
2021/01/17 11:08:43;;;;;;;27.43;8.70;;;7.40;99.90;;;;;;5120072;28;20233;-90
2021/01/17 11:11:10;;;;;;;18.23;7.37;;;7.40;99.90;;;;;;5133701;27;20184;-84
2021/01/17 11:13:36;;;;;;;28.37;7.93;;;7.50;99.90;;;;;;5119841;28;20270;-90
2021/01/17 11:16:03;;;;;;;23.43;8.10;;;7.30;99.90;;;;;;5100999;28;20190;-85
2021/01/17 11:18:29;;;;;;;26.47;8.63;;;7.20;99.90;;;;;;5101750;28;20181;-92
2021/01/17 11:20:57;;;;;;;20.97;7.60;;;7.20;99.90;;;;;;5106320;28;20278;-89
2021/01/17 11:23:24;;;;;;;24.77;7.83;;;7.30;99.90;;;;;;5120124;27;20209;-92
2021/01/17 11:26:02;;;;;;;31.43;8.30;;;7.20;99.90;;;;;;5116775;28;20171;-85
2021/01/17 11:28:32;;;;;;;24.80;8.67;;;7.20;99.90;;;;;;5119431;28;20206;-92
2021/01/17 11:31:13;;;;;;;26.03;11.40;;;7.30;99.90;;;;;;5118414;28;20235;-84
2021/01/17 11:33:38;;;;;;;28.73;9.63;;;7.40;99.90;;;;;;5115411;28;20186;-87
2021/01/17 11:36:05;;;;;;;23.80;8.23;;;7.40;99.90;;;;;;5116339;28;20205;-87
2021/01/17 11:38:57;;;;;;;20.00;7.70;;;7.40;99.90;;;;;;5113732;28;20670;-84
2021/01/17 11:41:38;;;;;;;23.03;8.20;;;7.40;99.90;;;;;;5100796;28;20209;-84
2021/01/17 11:44:18;;;;;;;23.37;8.67;;;7.50;99.90;;;;;;5112812;28;20181;-82
2021/01/17 11:46:45;;;;;;;24.20;8.83;;;7.50;99.90;;;;;;5098909;28;20645;-87
2021/01/17 11:49:12;;;;;;;28.27;8.83;;;7.90;99.90;;;;;;5097366;28;20190;-86
2021/01/17 11:51:39;;;;;;;30.73;8.73;;;7.70;99.90;;;;;;5130994;27;20198;-87
2021/01/17 11:54:13;;;;;;;23.27;7.97;;;7.80;99.90;;;;;;5110256;28;20187;-82
2021/01/17 11:56:39;;;;;;;21.40;7.13;;;7.90;99.90;;;;;;5109613;28;20267;-84
2021/01/17 11:59:05;;;;;;;22.43;7.87;;;8.00;99.90;;;;;;5096972;28;20190;-83
2021/01/17 12:01:30;;;;;;;19.30;7.13;;;7.90;99.90;;;;;;5114132;28;20279;-85
2021/01/17 12:04:04;;;;;;;23.73;7.83;;;7.90;99.90;;;;;;5095901;28;20171;-86
2021/01/17 12:06:33;;;;;;;21.07;6.80;;;7.80;99.90;;;;;;5095962;28;20193;-89
2021/01/17 12:09:05;;;;;;;20.63;7.43;;;7.60;99.90;;;;;;5095441;28;20683;-90
2021/01/17 12:11:39;;;;;;;23.23;8.00;;;7.90;99.90;;;;;;5114142;28;20191;-86
2021/01/17 12:14:10;;;;;;;21.03;7.60;;;7.90;99.90;;;;;;5094459;28;20269;-88
2021/01/17 12:16:38;;;;;;;23.07;8.10;;;8.10;99.90;;;;;;5094961;28;20817;-88
2021/01/17 12:19:07;;;;;;;22.17;8.43;;;8.00;99.90;;;;;;5095198;28;20205;-85
2021/01/17 12:21:34;;;;;;;22.80;7.87;;;7.90;99.90;;;;;;5113429;28;20252;-85
2021/01/17 12:24:01;;;;;;;21.67;7.63;;;8.00;99.90;;;;;;5095730;28;20195;-89
2021/01/17 12:26:27;;;;;;;22.00;7.50;;;7.90;99.90;;;;;;5095116;28;20202;-85
2021/01/17 12:28:53;;;;;;;18.70;7.53;;;7.90;99.90;;;;;;5094766;28;20601;-86
2021/01/17 12:31:21;;;;;;;15.70;6.23;;;7.90;99.90;;;;;;5114906;28;20179;-89
2021/01/17 12:33:47;;;;;;;17.00;6.83;;;7.80;99.90;;;;;;5096150;28;20653;-85
2021/01/17 12:36:15;;;;;;;21.83;7.30;;;7.80;99.90;;;;;;5096712;28;20191;-88
2021/01/17 12:38:42;;;;;;;14.73;5.63;;;7.70;99.90;;;;;;5113618;28;20277;-91
2021/01/17 12:41:09;;;;;;;18.20;6.33;;;7.60;99.90;;;;;;5095536;28;20191;-88
2021/01/17 12:43:36;;;;;;;22.33;6.47;;;7.70;99.90;;;;;;5094948;28;20286;-87
2021/01/17 12:46:04;;;;;;;20.30;6.70;;;7.70;99.90;;;;;;5094970;28;20740;-89
2021/01/17 12:48:30;;;;;;;14.23;5.57;;;7.80;99.90;;;;;;5094941;28;20214;-86
2021/01/17 12:50:55;;;;;;;19.43;6.87;;;7.90;99.90;;;;;;5094903;28;20195;-87
2021/01/17 12:53:21;;;;;;;20.23;5.53;;;7.80;99.90;;;;;;5113276;28;20186;-91